N4956M KISM-KLAL
Flight info
| Callsign | N4956M |
|---|---|
| Flight time | 0h 24m |
| Altitude | 6000 |
| Route | DIRECT/ SNF ARRIVAL |
| Aircraft | BE36/L-BDFGLORY/S |
Departure
| Time | 2026-04-26 20:13 |
|---|---|
| Airport | Kissimmee Gateway Airport (KISM) |
Arrival
| Time | 2026-04-26 20:38 |
|---|---|
| Airport | Lakeland Linder International Airport (KLAL) |
| Time | Latitude | Longitude | Altitude | Speed | Heading |
|---|---|---|---|---|---|
| 2026-04-26 20:01 | 28.29172 | -81.43059 | 88 ft | 0 kts | 358° |
| 2026-04-26 20:06 | 28.29179 | -81.43055 | 87 ft | 4 kts | 53° |
| 2026-04-26 20:06 | 28.29180 | -81.43020 | 85 ft | 5 kts | 93° |
| 2026-04-26 20:07 | 28.29202 | -81.42999 | 88 ft | 6 kts | 355° |
| 2026-04-26 20:07 | 28.29246 | -81.43001 | 89 ft | 8 kts | 359° |
| 2026-04-26 20:07 | 28.29323 | -81.43032 | 86 ft | 16 kts | 328° |
| 2026-04-26 20:07 | 28.29429 | -81.43107 | 87 ft | 18 kts | 327° |
| 2026-04-26 20:08 | 28.29476 | -81.43202 | 86 ft | 14 kts | 246° |
| 2026-04-26 20:08 | 28.29429 | -81.43291 | 86 ft | 12 kts | 238° |
| 2026-04-26 20:08 | 28.29386 | -81.43368 | 85 ft | 11 kts | 237° |
| 2026-04-26 20:08 | 28.29348 | -81.43437 | 85 ft | 10 kts | 238° |
| 2026-04-26 20:09 | 28.29313 | -81.43504 | 85 ft | 10 kts | 238° |
| 2026-04-26 20:09 | 28.29277 | -81.43570 | 88 ft | 10 kts | 237° |
| 2026-04-26 20:09 | 28.29236 | -81.43641 | 86 ft | 13 kts | 238° |
| 2026-04-26 20:09 | 28.29202 | -81.43742 | 86 ft | 14 kts | 315° |
| 2026-04-26 20:10 | 28.29279 | -81.43799 | 85 ft | 13 kts | 328° |
| 2026-04-26 20:10 | 28.29352 | -81.43849 | 85 ft | 12 kts | 328° |
| 2026-04-26 20:10 | 28.29427 | -81.43901 | 85 ft | 13 kts | 328° |
| 2026-04-26 20:10 | 28.29511 | -81.43962 | 85 ft | 17 kts | 328° |
| 2026-04-26 20:11 | 28.29619 | -81.44038 | 85 ft | 17 kts | 327° |
| 2026-04-26 20:11 | 28.29660 | -81.44085 | 87 ft | 0 kts | 259° |
| 2026-04-26 20:11 | 28.29660 | -81.44086 | 87 ft | 0 kts | 253° |
| 2026-04-26 20:12 | 28.29660 | -81.44087 | 87 ft | 2 kts | 253° |
| 2026-04-26 20:12 | 28.29638 | -81.44133 | 86 ft | 8 kts | 237° |
| 2026-04-26 20:12 | 28.29588 | -81.44144 | 84 ft | 12 kts | 150° |
| 2026-04-26 20:12 | 28.29302 | -81.43946 | 85 ft | 87 kts | 149° |
| 2026-04-26 20:13 | 28.28687 | -81.43495 | 246 ft | 118 kts | 141° |
| 2026-04-26 20:13 | 28.27968 | -81.42983 | 615 ft | 123 kts | 156° |
| 2026-04-26 20:13 | 28.27112 | -81.42937 | 939 ft | 126 kts | 202° |
| 2026-04-26 20:13 | 28.26422 | -81.43462 | 1161 ft | 117 kts | 237° |
| 2026-04-26 20:14 | 28.26241 | -81.44315 | 1351 ft | 115 kts | 278° |
| 2026-04-26 20:14 | 28.26497 | -81.45215 | 1392 ft | 128 kts | 291° |
| 2026-04-26 20:14 | 28.26861 | -81.46179 | 1387 ft | 136 kts | 289° |
| 2026-04-26 20:14 | 28.27109 | -81.47226 | 1366 ft | 138 kts | 277° |
| 2026-04-26 20:15 | 28.27115 | -81.48315 | 1377 ft | 140 kts | 263° |
| 2026-04-26 20:15 | 28.26953 | -81.49371 | 1542 ft | 124 kts | 258° |
| 2026-04-26 20:15 | 28.26737 | -81.50308 | 1483 ft | 124 kts | 255° |
| 2026-04-26 20:15 | 28.26471 | -81.51250 | 1443 ft | 125 kts | 252° |
| 2026-04-26 20:16 | 28.26178 | -81.52173 | 1430 ft | 124 kts | 252° |
| 2026-04-26 20:16 | 28.25879 | -81.53072 | 1388 ft | 119 kts | 252° |
| 2026-04-26 20:16 | 28.25598 | -81.53936 | 1359 ft | 114 kts | 251° |
| 2026-04-26 20:16 | 28.25324 | -81.54766 | 1364 ft | 111 kts | 254° |
| 2026-04-26 20:17 | 28.25078 | -81.55493 | 1396 ft | 113 kts | 252° |
| 2026-04-26 20:17 | 28.24803 | -81.56327 | 1402 ft | 112 kts | 252° |
| 2026-04-26 20:17 | 28.24533 | -81.57165 | 1392 ft | 113 kts | 251° |
| 2026-04-26 20:17 | 28.24357 | -81.57717 | 1393 ft | 112 kts | 250° |
| 2026-04-26 20:18 | 28.23988 | -81.58820 | 1390 ft | 111 kts | 250° |
| 2026-04-26 20:18 | 28.23712 | -81.59641 | 1391 ft | 112 kts | 250° |
| 2026-04-26 20:18 | 28.23440 | -81.60465 | 1410 ft | 112 kts | 251° |
| 2026-04-26 20:18 | 28.23161 | -81.61302 | 1416 ft | 114 kts | 250° |
| 2026-04-26 20:19 | 28.22857 | -81.62200 | 1423 ft | 125 kts | 251° |
| 2026-04-26 20:19 | 28.22563 | -81.63095 | 1393 ft | 117 kts | 251° |
| 2026-04-26 20:19 | 28.22287 | -81.63930 | 1381 ft | 110 kts | 251° |
| 2026-04-26 20:19 | 28.22019 | -81.64727 | 1390 ft | 107 kts | 251° |
| 2026-04-26 20:20 | 28.21762 | -81.65516 | 1387 ft | 106 kts | 253° |
| 2026-04-26 20:20 | 28.21504 | -81.66301 | 1354 ft | 110 kts | 253° |
| 2026-04-26 20:20 | 28.21220 | -81.67125 | 1250 ft | 113 kts | 251° |
| 2026-04-26 20:20 | 28.20953 | -81.67974 | 1119 ft | 116 kts | 253° |
| 2026-04-26 20:21 | 28.20916 | -81.68086 | 1119 ft | 117 kts | 253° |
| 2026-04-26 20:21 | 28.20667 | -81.68770 | 1115 ft | 116 kts | 246° |
| 2026-04-26 20:21 | 28.20372 | -81.69627 | 1172 ft | 117 kts | 257° |
| 2026-04-26 20:21 | 28.20125 | -81.70482 | 1085 ft | 111 kts | 252° |
| 2026-04-26 20:22 | 28.19856 | -81.71280 | 1075 ft | 106 kts | 253° |
| 2026-04-26 20:22 | 28.19590 | -81.72062 | 1127 ft | 108 kts | 252° |
| 2026-04-26 20:22 | 28.19337 | -81.72850 | 1176 ft | 110 kts | 251° |
| 2026-04-26 20:22 | 28.19052 | -81.73682 | 1181 ft | 115 kts | 251° |
| 2026-04-26 20:23 | 28.18769 | -81.74525 | 1179 ft | 115 kts | 250° |
| 2026-04-26 20:23 | 28.18485 | -81.75340 | 1157 ft | 104 kts | 252° |
| 2026-04-26 20:23 | 28.18250 | -81.76064 | 1137 ft | 95 kts | 253° |
| 2026-04-26 20:23 | 28.18021 | -81.76744 | 1093 ft | 89 kts | 249° |
| 2026-04-26 20:24 | 28.17777 | -81.77421 | 1153 ft | 96 kts | 252° |
| 2026-04-26 20:24 | 28.17562 | -81.78124 | 1145 ft | 95 kts | 251° |
| 2026-04-26 20:24 | 28.17334 | -81.78827 | 1102 ft | 93 kts | 252° |
| 2026-04-26 20:24 | 28.17104 | -81.79496 | 1099 ft | 90 kts | 251° |
| 2026-04-26 20:25 | 28.16882 | -81.80161 | 1101 ft | 89 kts | 253° |
| 2026-04-26 20:25 | 28.16809 | -81.80382 | 1103 ft | 88 kts | 250° |
| 2026-04-26 20:25 | 28.15999 | -81.81144 | 1109 ft | 101 kts | 203° |
| 2026-04-26 20:25 | 28.15311 | -81.81418 | 1151 ft | 106 kts | 207° |
| 2026-04-26 20:26 | 28.14635 | -81.81761 | 1149 ft | 108 kts | 207° |
| 2026-04-26 20:26 | 28.13951 | -81.82101 | 1119 ft | 106 kts | 208° |
| 2026-04-26 20:26 | 28.13280 | -81.82427 | 1095 ft | 104 kts | 207° |
| 2026-04-26 20:26 | 28.12612 | -81.82737 | 1090 ft | 102 kts | 208° |
| 2026-04-26 20:27 | 28.11989 | -81.83096 | 1123 ft | 100 kts | 225° |
| 2026-04-26 20:27 | 28.11647 | -81.83746 | 1141 ft | 97 kts | 252° |
| 2026-04-26 20:27 | 28.11476 | -81.84215 | 1136 ft | 99 kts | 248° |
| 2026-04-26 20:27 | 28.11188 | -81.84926 | 1106 ft | 98 kts | 248° |
| 2026-04-26 20:28 | 28.10915 | -81.85627 | 1102 ft | 97 kts | 248° |
| 2026-04-26 20:28 | 28.10636 | -81.86320 | 1089 ft | 96 kts | 249° |
| 2026-04-26 20:28 | 28.10363 | -81.87002 | 1109 ft | 96 kts | 249° |
| 2026-04-26 20:28 | 28.10086 | -81.87692 | 1121 ft | 96 kts | 253° |
| 2026-04-26 20:29 | 28.09840 | -81.88398 | 1156 ft | 97 kts | 253° |
| 2026-04-26 20:29 | 28.09559 | -81.89093 | 1120 ft | 96 kts | 249° |
| 2026-04-26 20:29 | 28.09286 | -81.89780 | 1090 ft | 95 kts | 248° |
| 2026-04-26 20:29 | 28.09016 | -81.90447 | 1090 ft | 93 kts | 251° |
| 2026-04-26 20:30 | 28.08753 | -81.91123 | 1091 ft | 93 kts | 250° |
| 2026-04-26 20:30 | 28.08525 | -81.91804 | 1107 ft | 93 kts | 251° |
| 2026-04-26 20:30 | 28.08351 | -81.92495 | 1174 ft | 93 kts | 266° |
| 2026-04-26 20:30 | 28.08232 | -81.93255 | 1191 ft | 96 kts | 265° |
| 2026-04-26 20:31 | 28.08122 | -81.93991 | 1060 ft | 93 kts | 262° |
| 2026-04-26 20:31 | 28.08049 | -81.94678 | 1020 ft | 85 kts | 267° |
| 2026-04-26 20:31 | 28.08000 | -81.95351 | 1071 ft | 88 kts | 266° |
| 2026-04-26 20:31 | 28.07943 | -81.96056 | 1081 ft | 90 kts | 266° |
| 2026-04-26 20:32 | 28.07874 | -81.96751 | 1114 ft | 88 kts | 263° |
| 2026-04-26 20:32 | 28.07795 | -81.97440 | 1109 ft | 87 kts | 264° |
| 2026-04-26 20:32 | 28.07605 | -81.98066 | 1133 ft | 90 kts | 220° |
| 2026-04-26 20:32 | 28.07050 | -81.98376 | 1131 ft | 89 kts | 230° |
| 2026-04-26 20:33 | 28.06642 | -81.98909 | 1077 ft | 91 kts | 235° |
| 2026-04-26 20:33 | 28.06249 | -81.99452 | 1084 ft | 91 kts | 230° |
| 2026-04-26 20:33 | 28.05831 | -81.99984 | 1141 ft | 91 kts | 235° |
| 2026-04-26 20:33 | 28.05396 | -82.00530 | 1084 ft | 94 kts | 231° |
| 2026-04-26 20:34 | 28.04994 | -82.01111 | 1139 ft | 95 kts | 234° |
| 2026-04-26 20:34 | 28.04568 | -82.01666 | 1106 ft | 92 kts | 233° |
| 2026-04-26 20:34 | 28.04160 | -82.02228 | 1152 ft | 93 kts | 235° |
| 2026-04-26 20:34 | 28.03617 | -82.02624 | 1140 ft | 102 kts | 185° |
| 2026-04-26 20:35 | 28.02910 | -82.02597 | 1123 ft | 102 kts | 183° |
| 2026-04-26 20:35 | 28.02210 | -82.02535 | 1084 ft | 99 kts | 180° |
| 2026-04-26 20:35 | 28.01532 | -82.02435 | 1078 ft | 98 kts | 175° |
| 2026-04-26 20:35 | 28.00911 | -82.02188 | 1076 ft | 101 kts | 125° |
| 2026-04-26 20:36 | 28.00782 | -82.01397 | 1042 ft | 107 kts | 91° |
| 2026-04-26 20:36 | 28.00728 | -82.00528 | 1057 ft | 112 kts | 89° |
| 2026-04-26 20:36 | 28.00700 | -81.99629 | 974 ft | 116 kts | 99° |
| 2026-04-26 20:36 | 28.00194 | -81.99085 | 857 ft | 98 kts | 187° |
| 2026-04-26 20:37 | 27.99574 | -81.99297 | 659 ft | 89 kts | 214° |
| 2026-04-26 20:37 | 27.99214 | -81.99762 | 448 ft | 78 kts | 248° |
| 2026-04-26 20:37 | 27.99063 | -82.00326 | 335 ft | 74 kts | 264° |
| 2026-04-26 20:37 | 27.99035 | -82.00878 | 240 ft | 63 kts | 268° |
| 2026-04-26 20:38 | 27.99037 | -82.01365 | 170 ft | 65 kts | 269° |
| 2026-04-26 20:38 | 27.99038 | -82.01841 | 136 ft | 47 kts | 269° |
| 2026-04-26 20:38 | 27.99036 | -82.02159 | 136 ft | 38 kts | 270° |
| 2026-04-26 20:38 | 27.99035 | -82.02446 | 137 ft | 39 kts | 269° |
| 2026-04-26 20:39 | 27.99035 | -82.02750 | 137 ft | 36 kts | 270° |
| 2026-04-26 20:39 | 27.99034 | -82.03017 | 136 ft | 32 kts | 270° |
| 2026-04-26 20:39 | 27.99034 | -82.03247 | 136 ft | 28 kts | 270° |
| 2026-04-26 20:39 | 27.98984 | -82.03356 | 136 ft | 17 kts | 181° |
| 2026-04-26 20:40 | 27.98855 | -82.03353 | 134 ft | 17 kts | 174° |
| 2026-04-26 20:40 | 27.98815 | -82.03225 | 132 ft | 22 kts | 89° |
| 2026-04-26 20:40 | 27.98816 | -82.03032 | 132 ft | 26 kts | 90° |
| 2026-04-26 20:40 | 27.98816 | -82.02839 | 132 ft | 23 kts | 92° |
| 2026-04-26 20:41 | 27.98816 | -82.02663 | 132 ft | 22 kts | 90° |
| 2026-04-26 20:41 | 27.98816 | -82.02497 | 132 ft | 21 kts | 89° |
| 2026-04-26 20:41 | 27.98817 | -82.02347 | 132 ft | 16 kts | 89° |
| 2026-04-26 20:41 | 27.98779 | -82.02295 | 130 ft | 10 kts | 181° |
| 2026-04-26 20:42 | 27.98731 | -82.02260 | 131 ft | 10 kts | 92° |
| 2026-04-26 20:42 | 27.98732 | -82.02184 | 131 ft | 9 kts | 89° |
| 2026-04-26 20:42 | 27.98732 | -82.02094 | 131 ft | 13 kts | 90° |
| 2026-04-26 20:42 | 27.98732 | -82.01987 | 131 ft | 14 kts | 90° |
| 2026-04-26 20:43 | 27.98731 | -82.01885 | 131 ft | 9 kts | 90° |
| 2026-04-26 20:43 | 27.98731 | -82.01833 | 131 ft | 5 kts | 89° |
| 2026-04-26 20:43 | 27.98731 | -82.01813 | 131 ft | 0 kts | 89° |
| 2026-04-26 20:43 | 27.98731 | -82.01806 | 132 ft | 4 kts | 89° |
| 2026-04-26 20:44 | 27.98732 | -82.01732 | 134 ft | 12 kts | 90° |
| 2026-04-26 20:44 | 27.98733 | -82.01625 | 139 ft | 15 kts | 89° |
| 2026-04-26 20:44 | 27.98734 | -82.01474 | 133 ft | 19 kts | 90° |
| 2026-04-26 20:44 | 27.98733 | -82.01326 | 131 ft | 15 kts | 90° |
| 2026-04-26 20:45 | 27.98710 | -82.01263 | 129 ft | 10 kts | 146° |
| 2026-04-26 20:45 | 27.98647 | -82.01192 | 130 ft | 12 kts | 133° |
| 2026-04-26 20:45 | 27.98582 | -82.01129 | 130 ft | 12 kts | 155° |
| 2026-04-26 20:45 | 27.98515 | -82.01169 | 127 ft | 12 kts | 256° |
| 2026-04-26 20:46 | 27.98498 | -82.01246 | 128 ft | 9 kts | 252° |
| 2026-04-26 20:46 | 27.98469 | -82.01296 | 128 ft | 8 kts | 219° |
| 2026-04-26 20:46 | 27.98423 | -82.01335 | 130 ft | 7 kts | 217° |
| 2026-04-26 20:46 | 27.98385 | -82.01371 | 130 ft | 7 kts | 230° |
| 2026-04-26 20:47 | 27.98365 | -82.01406 | 129 ft | 5 kts | 244° |
| 2026-04-26 20:47 | 27.98359 | -82.01427 | 127 ft | 3 kts | 257° |
| 2026-04-26 20:47 | 27.98357 | -82.01436 | 129 ft | 0 kts | 254° |
| 2026-04-26 20:49 | 27.98357 | -82.01446 | 128 ft | 0 kts | 273° |